sensor_id;sensor_type;location;lat;lon;timestamp;P1;durP1;ratioP1;P2;durP2;ratioP2
24206;SDS011;12351;52.284;9.160;2023-04-06T00:01:32;3.20;;;2.10;;
24206;SDS011;12351;52.284;9.160;2023-04-06T00:04:20;3.05;;;2.30;;
24206;SDS011;12351;52.284;9.160;2023-04-06T00:07:09;5.10;;;2.58;;
24206;SDS011;12351;52.284;9.160;2023-04-06T00:09:58;4.62;;;2.33;;
24206;SDS011;12351;52.284;9.160;2023-04-06T00:12:46;3.52;;;2.45;;
24206;SDS011;12351;52.284;9.160;2023-04-06T00:15:37;3.67;;;2.30;;
24206;SDS011;12351;52.284;9.160;2023-04-06T00:18:25;5.50;;;2.20;;
24206;SDS011;12351;52.284;9.160;2023-04-06T00:21:13;3.58;;;2.40;;
24206;SDS011;12351;52.284;9.160;2023-04-06T00:24:02;4.03;;;2.60;;
24206;SDS011;12351;52.284;9.160;2023-04-06T00:26:49;5.30;;;2.33;;
24206;SDS011;12351;52.284;9.160;2023-04-06T00:29:39;6.40;;;2.40;;
24206;SDS011;12351;52.284;9.160;2023-04-06T00:32:26;4.45;;;2.10;;
24206;SDS011;12351;52.284;9.160;2023-04-06T00:35:15;5.50;;;2.60;;
24206;SDS011;12351;52.284;9.160;2023-04-06T00:38:04;5.37;;;2.65;;
24206;SDS011;12351;52.284;9.160;2023-04-06T00:40:52;3.35;;;2.40;;
24206;SDS011;12351;52.284;9.160;2023-04-06T00:43:43;4.40;;;2.90;;
24206;SDS011;12351;52.284;9.160;2023-04-06T00:46:31;6.47;;;2.72;;
24206;SDS011;12351;52.284;9.160;2023-04-06T00:49:19;4.92;;;2.60;;
24206;SDS011;12351;52.284;9.160;2023-04-06T00:52:07;4.28;;;2.87;;
24206;SDS011;12351;52.284;9.160;2023-04-06T00:54:56;5.83;;;2.80;;
24206;SDS011;12351;52.284;9.160;2023-04-06T00:57:45;4.35;;;2.80;;
24206;SDS011;12351;52.284;9.160;2023-04-06T01:00:37;3.58;;;2.70;;
24206;SDS011;12351;52.284;9.160;2023-04-06T01:03:25;3.83;;;2.72;;
24206;SDS011;12351;52.284;9.160;2023-04-06T02:38:03;4.55;;;3.40;;
24206;SDS011;12351;52.284;9.160;2023-04-06T02:40:53;5.17;;;3.33;;
24206;SDS011;12351;52.284;9.160;2023-04-06T02:43:43;4.65;;;3.27;;
24206;SDS011;12351;52.284;9.160;2023-04-06T02:46:30;4.70;;;3.45;;
24206;SDS011;12351;52.284;9.160;2023-04-06T02:49:18;6.45;;;3.50;;
24206;SDS011;12351;52.284;9.160;2023-04-06T02:52:07;5.15;;;3.40;;
24206;SDS011;12351;52.284;9.160;2023-04-06T02:54:55;7.35;;;3.87;;
24206;SDS011;12351;52.284;9.160;2023-04-06T02:57:42;6.87;;;3.50;;
24206;SDS011;12351;52.284;9.160;2023-04-06T03:00:32;6.37;;;4.00;;
24206;SDS011;12351;52.284;9.160;2023-04-06T03:03:20;4.17;;;3.47;;
24206;SDS011;12351;52.284;9.160;2023-04-06T03:06:11;8.70;;;3.42;;
24206;SDS011;12351;52.284;9.160;2023-04-06T03:09:00;7.97;;;3.67;;
24206;SDS011;12351;52.284;9.160;2023-04-06T03:11:48;6.10;;;3.62;;
24206;SDS011;12351;52.284;9.160;2023-04-06T03:14:38;5.70;;;3.50;;
24206;SDS011;12351;52.284;9.160;2023-04-06T03:17:25;7.20;;;3.55;;
24206;SDS011;12351;52.284;9.160;2023-04-06T03:23:01;5.53;;;3.47;;
24206;SDS011;12351;52.284;9.160;2023-04-06T03:25:50;5.50;;;3.47;;
24206;SDS011;12351;52.284;9.160;2023-04-06T03:28:38;5.75;;;3.60;;
24206;SDS011;12351;52.284;9.160;2023-04-06T03:31:29;5.67;;;3.70;;
24206;SDS011;12351;52.284;9.160;2023-04-06T03:34:16;5.25;;;3.60;;
24206;SDS011;12351;52.284;9.160;2023-04-06T03:37:04;5.62;;;3.30;;
24206;SDS011;12351;52.284;9.160;2023-04-06T03:39:53;6.03;;;3.87;;
24206;SDS011;12351;52.284;9.160;2023-04-06T03:42:41;5.05;;;3.60;;
24206;SDS011;12351;52.284;9.160;2023-04-06T03:45:29;6.97;;;3.92;;
24206;SDS011;12351;52.284;9.160;2023-04-06T03:48:18;5.55;;;3.70;;
24206;SDS011;12351;52.284;9.160;2023-04-06T03:51:07;5.72;;;3.95;;
24206;SDS011;12351;52.284;9.160;2023-04-06T03:53:53;5.17;;;3.42;;
24206;SDS011;12351;52.284;9.160;2023-04-06T03:56:43;6.95;;;3.77;;
24206;SDS011;12351;52.284;9.160;2023-04-06T03:59:32;6.40;;;3.83;;
24206;SDS011;12351;52.284;9.160;2023-04-06T04:02:22;8.45;;;4.45;;
24206;SDS011;12351;52.284;9.160;2023-04-06T04:05:08;6.27;;;3.70;;
24206;SDS011;12351;52.284;9.160;2023-04-06T04:07:57;4.92;;;3.40;;
24206;SDS011;12351;52.284;9.160;2023-04-06T04:10:46;4.62;;;3.80;;
24206;SDS011;12351;52.284;9.160;2023-04-06T04:13:34;6.40;;;3.65;;
24206;SDS011;12351;52.284;9.160;2023-04-06T04:16:22;5.50;;;3.57;;
24206;SDS011;12351;52.284;9.160;2023-04-06T04:19:10;7.50;;;4.08;;
24206;SDS011;12351;52.284;9.160;2023-04-06T04:21:58;5.80;;;3.90;;
24206;SDS011;12351;52.284;9.160;2023-04-06T04:24:47;7.15;;;3.70;;
24206;SDS011;12351;52.284;9.160;2023-04-06T04:27:38;6.78;;;4.10;;
24206;SDS011;12351;52.284;9.160;2023-04-06T04:30:30;4.92;;;3.77;;
24206;SDS011;12351;52.284;9.160;2023-04-06T04:33:19;5.45;;;4.08;;
24206;SDS011;12351;52.284;9.160;2023-04-06T04:36:06;5.47;;;4.05;;
24206;SDS011;12351;52.284;9.160;2023-04-06T04:38:55;7.60;;;3.65;;
24206;SDS011;12351;52.284;9.160;2023-04-06T04:41:48;9.30;;;4.30;;
24206;SDS011;12351;52.284;9.160;2023-04-06T04:44:37;5.73;;;3.97;;
24206;SDS011;12351;52.284;9.160;2023-04-06T04:47:23;9.18;;;4.50;;
24206;SDS011;12351;52.284;9.160;2023-04-06T04:50:12;4.85;;;3.87;;
24206;SDS011;12351;52.284;9.160;2023-04-06T04:53:02;5.60;;;3.90;;
24206;SDS011;12351;52.284;9.160;2023-04-06T04:55:51;5.10;;;4.05;;
24206;SDS011;12351;52.284;9.160;2023-04-06T04:58:40;6.67;;;3.80;;
24206;SDS011;12351;52.284;9.160;2023-04-06T05:01:29;6.80;;;3.85;;
24206;SDS011;12351;52.284;9.160;2023-04-06T05:04:17;8.30;;;4.37;;
24206;SDS011;12351;52.284;9.160;2023-04-06T05:07:06;7.42;;;4.20;;
24206;SDS011;12351;52.284;9.160;2023-04-06T05:09:55;5.55;;;3.65;;
24206;SDS011;12351;52.284;9.160;2023-04-06T05:12:42;6.45;;;4.40;;
24206;SDS011;12351;52.284;9.160;2023-04-06T05:15:29;8.78;;;4.62;;
24206;SDS011;12351;52.284;9.160;2023-04-06T05:18:17;6.03;;;3.85;;
24206;SDS011;12351;52.284;9.160;2023-04-06T05:21:05;5.75;;;4.05;;
24206;SDS011;12351;52.284;9.160;2023-04-06T05:23:53;5.53;;;3.87;;
24206;SDS011;12351;52.284;9.160;2023-04-06T05:26:42;5.87;;;4.05;;
24206;SDS011;12351;52.284;9.160;2023-04-06T05:29:30;6.42;;;3.85;;
24206;SDS011;12351;52.284;9.160;2023-04-06T05:32:18;6.45;;;4.35;;
24206;SDS011;12351;52.284;9.160;2023-04-06T05:35:06;7.05;;;4.22;;
24206;SDS011;12351;52.284;9.160;2023-04-06T05:37:56;5.97;;;4.00;;
24206;SDS011;12351;52.284;9.160;2023-04-06T05:40:46;6.03;;;3.87;;
24206;SDS011;12351;52.284;9.160;2023-04-06T05:43:36;6.12;;;4.03;;
24206;SDS011;12351;52.284;9.160;2023-04-06T05:46:24;6.25;;;4.05;;
24206;SDS011;12351;52.284;9.160;2023-04-06T05:49:11;5.83;;;4.07;;
24206;SDS011;12351;52.284;9.160;2023-04-06T05:51:57;5.53;;;3.73;;
24206;SDS011;12351;52.284;9.160;2023-04-06T05:54:45;5.97;;;3.95;;
24206;SDS011;12351;52.284;9.160;2023-04-06T05:57:37;7.90;;;4.53;;
24206;SDS011;12351;52.284;9.160;2023-04-06T06:00:25;5.70;;;4.10;;
24206;SDS011;12351;52.284;9.160;2023-04-06T06:03:15;4.70;;;3.92;;
24206;SDS011;12351;52.284;9.160;2023-04-06T06:06:05;8.53;;;4.33;;
24206;SDS011;12351;52.284;9.160;2023-04-06T06:08:54;6.03;;;4.00;;
24206;SDS011;12351;52.284;9.160;2023-04-06T06:11:43;7.50;;;4.10;;
24206;SDS011;12351;52.284;9.160;2023-04-06T06:14:32;5.37;;;4.37;;
24206;SDS011;12351;52.284;9.160;2023-04-06T06:17:19;6.75;;;4.22;;
24206;SDS011;12351;52.284;9.160;2023-04-06T06:20:07;6.20;;;3.90;;
24206;SDS011;12351;52.284;9.160;2023-04-06T06:22:56;8.33;;;4.53;;
24206;SDS011;12351;52.284;9.160;2023-04-06T06:25:46;6.30;;;4.33;;
24206;SDS011;12351;52.284;9.160;2023-04-06T06:28:34;5.70;;;4.12;;
24206;SDS011;12351;52.284;9.160;2023-04-06T06:31:23;7.30;;;4.20;;
24206;SDS011;12351;52.284;9.160;2023-04-06T06:34:11;5.08;;;3.80;;
24206;SDS011;12351;52.284;9.160;2023-04-06T06:36:58;5.53;;;4.15;;
24206;SDS011;12351;52.284;9.160;2023-04-06T06:39:48;11.05;;;4.30;;
24206;SDS011;12351;52.284;9.160;2023-04-06T06:42:36;6.25;;;4.40;;
24206;SDS011;12351;52.284;9.160;2023-04-06T06:45:24;7.37;;;4.22;;
24206;SDS011;12351;52.284;9.160;2023-04-06T06:48:13;6.50;;;4.17;;
24206;SDS011;12351;52.284;9.160;2023-04-06T06:51:04;5.47;;;3.90;;
24206;SDS011;12351;52.284;9.160;2023-04-06T06:53:56;7.03;;;4.70;;
24206;SDS011;12351;52.284;9.160;2023-04-06T06:56:45;5.67;;;3.80;;
24206;SDS011;12351;52.284;9.160;2023-04-06T06:59:33;8.70;;;4.15;;
24206;SDS011;12351;52.284;9.160;2023-04-06T07:02:21;6.10;;;4.05;;
24206;SDS011;12351;52.284;9.160;2023-04-06T07:05:10;5.78;;;3.95;;
24206;SDS011;12351;52.284;9.160;2023-04-06T07:07:58;6.15;;;3.85;;
24206;SDS011;12351;52.284;9.160;2023-04-06T07:10:50;9.63;;;3.80;;
24206;SDS011;12351;52.284;9.160;2023-04-06T07:13:41;5.33;;;4.25;;
24206;SDS011;12351;52.284;9.160;2023-04-06T07:16:30;6.87;;;3.87;;
24206;SDS011;12351;52.284;9.160;2023-04-06T07:19:21;7.10;;;4.25;;
24206;SDS011;12351;52.284;9.160;2023-04-06T07:22:11;7.92;;;4.50;;
24206;SDS011;12351;52.284;9.160;2023-04-06T07:24:59;5.47;;;4.08;;
24206;SDS011;12351;52.284;9.160;2023-04-06T07:27:46;6.35;;;3.85;;
24206;SDS011;12351;52.284;9.160;2023-04-06T07:30:34;5.40;;;4.20;;
24206;SDS011;12351;52.284;9.160;2023-04-06T07:33:25;7.60;;;4.22;;
24206;SDS011;12351;52.284;9.160;2023-04-06T07:36:15;5.70;;;4.05;;
24206;SDS011;12351;52.284;9.160;2023-04-06T07:39:04;6.78;;;4.55;;
24206;SDS011;12351;52.284;9.160;2023-04-06T07:41:52;4.90;;;4.15;;
24206;SDS011;12351;52.284;9.160;2023-04-06T07:44:40;7.50;;;4.15;;
24206;SDS011;12351;52.284;9.160;2023-04-06T07:47:30;8.25;;;4.62;;
24206;SDS011;12351;52.284;9.160;2023-04-06T07:50:17;6.95;;;4.53;;
24206;SDS011;12351;52.284;9.160;2023-04-06T07:53:05;6.17;;;4.25;;
24206;SDS011;12351;52.284;9.160;2023-04-06T07:58:46;5.55;;;4.08;;
24206;SDS011;12351;52.284;9.160;2023-04-06T08:01:33;7.92;;;4.72;;
24206;SDS011;12351;52.284;9.160;2023-04-06T08:04:21;7.00;;;4.42;;
24206;SDS011;12351;52.284;9.160;2023-04-06T08:07:08;6.12;;;4.50;;
24206;SDS011;12351;52.284;9.160;2023-04-06T08:09:56;6.47;;;4.40;;
24206;SDS011;12351;52.284;9.160;2023-04-06T08:12:45;6.78;;;4.47;;
24206;SDS011;12351;52.284;9.160;2023-04-06T08:15:32;8.60;;;4.53;;
24206;SDS011;12351;52.284;9.160;2023-04-06T08:18:22;7.22;;;4.67;;
24206;SDS011;12351;52.284;9.160;2023-04-06T08:21:10;6.80;;;4.62;;
24206;SDS011;12351;52.284;9.160;2023-04-06T08:23:59;7.00;;;4.37;;
24206;SDS011;12351;52.284;9.160;2023-04-06T08:26:48;5.58;;;4.15;;
24206;SDS011;12351;52.284;9.160;2023-04-06T08:29:37;6.65;;;4.87;;
24206;SDS011;12351;52.284;9.160;2023-04-06T08:32:26;6.45;;;4.47;;
24206;SDS011;12351;52.284;9.160;2023-04-06T08:35:14;6.30;;;4.50;;
24206;SDS011;12351;52.284;9.160;2023-04-06T08:38:05;6.25;;;4.75;;
24206;SDS011;12351;52.284;9.160;2023-04-06T08:40:52;7.58;;;4.33;;
24206;SDS011;12351;52.284;9.160;2023-04-06T08:46:31;7.97;;;5.28;;
24206;SDS011;12351;52.284;9.160;2023-04-06T08:49:25;6.30;;;4.80;;
24206;SDS011;12351;52.284;9.160;2023-04-06T08:52:16;7.40;;;4.43;;
24206;SDS011;12351;52.284;9.160;2023-04-06T08:55:08;6.70;;;4.45;;
24206;SDS011;12351;52.284;9.160;2023-04-06T08:57:59;7.00;;;4.78;;
24206;SDS011;12351;52.284;9.160;2023-04-06T09:00:49;6.45;;;4.70;;
24206;SDS011;12351;52.284;9.160;2023-04-06T09:03:40;6.33;;;4.70;;
24206;SDS011;12351;52.284;9.160;2023-04-06T09:06:30;7.75;;;5.20;;
24206;SDS011;12351;52.284;9.160;2023-04-06T09:09:21;6.35;;;5.03;;
24206;SDS011;12351;52.284;9.160;2023-04-06T09:12:10;7.30;;;5.33;;
24206;SDS011;12351;52.284;9.160;2023-04-06T09:15:02;6.80;;;4.95;;
24206;SDS011;12351;52.284;9.160;2023-04-06T09:20:44;8.95;;;5.03;;
24206;SDS011;12351;52.284;9.160;2023-04-06T09:23:31;9.00;;;5.37;;
24206;SDS011;12351;52.284;9.160;2023-04-06T09:26:18;7.10;;;5.12;;
24206;SDS011;12351;52.284;9.160;2023-04-06T09:29:06;8.30;;;5.00;;
24206;SDS011;12351;52.284;9.160;2023-04-06T09:32:01;7.78;;;4.95;;
24206;SDS011;12351;52.284;9.160;2023-04-06T09:34:44;8.35;;;5.05;;
24206;SDS011;12351;52.284;9.160;2023-04-06T09:37:33;6.42;;;5.05;;
24206;SDS011;12351;52.284;9.160;2023-04-06T09:40:23;5.50;;;4.90;;
24206;SDS011;12351;52.284;9.160;2023-04-06T09:43:12;9.50;;;5.17;;
24206;SDS011;12351;52.284;9.160;2023-04-06T09:46:00;8.13;;;5.83;;
24206;SDS011;12351;52.284;9.160;2023-04-06T09:48:49;9.50;;;5.78;;
24206;SDS011;12351;52.284;9.160;2023-04-06T09:54:33;7.75;;;5.55;;
24206;SDS011;12351;52.284;9.160;2023-04-06T10:00:15;8.63;;;5.53;;
24206;SDS011;12351;52.284;9.160;2023-04-06T10:03:08;7.95;;;5.83;;
24206;SDS011;12351;52.284;9.160;2023-04-06T10:05:56;9.03;;;6.87;;
24206;SDS011;12351;52.284;9.160;2023-04-06T10:08:45;8.55;;;5.97;;
24206;SDS011;12351;52.284;9.160;2023-04-06T10:11:36;9.10;;;6.30;;
24206;SDS011;12351;52.284;9.160;2023-04-06T10:14:25;8.68;;;6.03;;
24206;SDS011;12351;52.284;9.160;2023-04-06T10:17:15;7.90;;;6.33;;
24206;SDS011;12351;52.284;9.160;2023-04-06T10:22:56;9.40;;;6.25;;
24206;SDS011;12351;52.284;9.160;2023-04-06T10:25:54;11.33;;;6.72;;
24206;SDS011;12351;52.284;9.160;2023-04-06T10:28:34;11.75;;;6.47;;
24206;SDS011;12351;52.284;9.160;2023-04-06T10:31:24;10.30;;;6.50;;
24206;SDS011;12351;52.284;9.160;2023-04-06T10:34:13;9.90;;;6.47;;
24206;SDS011;12351;52.284;9.160;2023-04-06T10:39:52;8.23;;;6.37;;
24206;SDS011;12351;52.284;9.160;2023-04-06T10:42:42;8.10;;;6.55;;
24206;SDS011;12351;52.284;9.160;2023-04-06T10:45:31;10.48;;;6.78;;
24206;SDS011;12351;52.284;9.160;2023-04-06T10:48:21;9.15;;;6.58;;
24206;SDS011;12351;52.284;9.160;2023-04-06T10:51:13;9.93;;;7.47;;
24206;SDS011;12351;52.284;9.160;2023-04-06T10:54:01;11.57;;;7.58;;
24206;SDS011;12351;52.284;9.160;2023-04-06T10:56:54;9.05;;;7.40;;
24206;SDS011;12351;52.284;9.160;2023-04-06T10:59:43;10.05;;;7.50;;
24206;SDS011;12351;52.284;9.160;2023-04-06T11:02:32;9.38;;;6.78;;
24206;SDS011;12351;52.284;9.160;2023-04-06T11:05:22;9.40;;;7.65;;
24206;SDS011;12351;52.284;9.160;2023-04-06T11:13:55;9.60;;;7.55;;
24206;SDS011;12351;52.284;9.160;2023-04-06T11:16:45;11.28;;;7.80;;
24206;SDS011;12351;52.284;9.160;2023-04-06T11:19:35;8.35;;;6.95;;
24206;SDS011;12351;52.284;9.160;2023-04-06T11:22:23;9.80;;;7.62;;
24206;SDS011;12351;52.284;9.160;2023-04-06T11:25:12;9.43;;;7.58;;
24206;SDS011;12351;52.284;9.160;2023-04-06T11:28:03;12.10;;;7.97;;
24206;SDS011;12351;52.284;9.160;2023-04-06T11:30:52;10.25;;;8.65;;
24206;SDS011;12351;52.284;9.160;2023-04-06T11:33:43;11.53;;;8.55;;
24206;SDS011;12351;52.284;9.160;2023-04-06T11:36:30;12.78;;;8.98;;
24206;SDS011;12351;52.284;9.160;2023-04-06T11:39:22;11.43;;;8.65;;
24206;SDS011;12351;52.284;9.160;2023-04-06T11:42:12;12.60;;;9.00;;
24206;SDS011;12351;52.284;9.160;2023-04-06T11:45:02;11.25;;;8.88;;
24206;SDS011;12351;52.284;9.160;2023-04-06T11:50:46;12.18;;;9.00;;
24206;SDS011;12351;52.284;9.160;2023-04-06T11:53:43;11.88;;;8.73;;
24206;SDS011;12351;52.284;9.160;2023-04-06T11:56:29;12.47;;;8.88;;
24206;SDS011;12351;52.284;9.160;2023-04-06T11:59:18;12.25;;;8.78;;
24206;SDS011;12351;52.284;9.160;2023-04-06T12:02:09;10.72;;;8.23;;
24206;SDS011;12351;52.284;9.160;2023-04-06T12:05:00;11.15;;;8.85;;
24206;SDS011;12351;52.284;9.160;2023-04-06T12:07:47;12.07;;;9.40;;
24206;SDS011;12351;52.284;9.160;2023-04-06T12:10:35;11.28;;;9.25;;
24206;SDS011;12351;52.284;9.160;2023-04-06T12:13:26;12.33;;;9.30;;
24206;SDS011;12351;52.284;9.160;2023-04-06T12:16:15;10.40;;;8.68;;
24206;SDS011;12351;52.284;9.160;2023-04-06T12:19:04;10.00;;;8.78;;
24206;SDS011;12351;52.284;9.160;2023-04-06T12:21:53;11.60;;;8.55;;
24206;SDS011;12351;52.284;9.160;2023-04-06T12:24:43;13.75;;;8.75;;
24206;SDS011;12351;52.284;9.160;2023-04-06T12:27:32;12.37;;;8.63;;
24206;SDS011;12351;52.284;9.160;2023-04-06T12:30:19;10.58;;;9.48;;
24206;SDS011;12351;52.284;9.160;2023-04-06T12:33:10;12.82;;;8.33;;
24206;SDS011;12351;52.284;9.160;2023-04-06T12:35:56;17.07;;;13.35;;
24206;SDS011;12351;52.284;9.160;2023-04-06T12:38:46;10.43;;;8.65;;
24206;SDS011;12351;52.284;9.160;2023-04-06T12:41:37;10.95;;;8.38;;
24206;SDS011;12351;52.284;9.160;2023-04-06T12:44:28;13.58;;;9.43;;
24206;SDS011;12351;52.284;9.160;2023-04-06T12:47:16;10.10;;;9.00;;
24206;SDS011;12351;52.284;9.160;2023-04-06T12:50:07;11.45;;;9.00;;
24206;SDS011;12351;52.284;9.160;2023-04-06T12:52:57;12.82;;;9.08;;
24206;SDS011;12351;52.284;9.160;2023-04-06T12:55:44;11.70;;;9.30;;
24206;SDS011;12351;52.284;9.160;2023-04-06T12:58:33;11.08;;;9.08;;
24206;SDS011;12351;52.284;9.160;2023-04-06T13:01:23;12.55;;;9.03;;
24206;SDS011;12351;52.284;9.160;2023-04-06T13:04:13;10.68;;;8.90;;
24206;SDS011;12351;52.284;9.160;2023-04-06T13:07:01;11.10;;;8.58;;
24206;SDS011;12351;52.284;9.160;2023-04-06T13:09:48;9.93;;;8.38;;
24206;SDS011;12351;52.284;9.160;2023-04-06T13:12:36;9.63;;;8.63;;
24206;SDS011;12351;52.284;9.160;2023-04-06T13:15:24;9.80;;;8.53;;
24206;SDS011;12351;52.284;9.160;2023-04-06T13:18:13;10.48;;;8.00;;
24206;SDS011;12351;52.284;9.160;2023-04-06T13:21:01;9.98;;;8.28;;
24206;SDS011;12351;52.284;9.160;2023-04-06T13:23:50;11.25;;;8.13;;
24206;SDS011;12351;52.284;9.160;2023-04-06T13:26:37;8.83;;;7.37;;
24206;SDS011;12351;52.284;9.160;2023-04-06T13:29:26;9.45;;;8.03;;
24206;SDS011;12351;52.284;9.160;2023-04-06T13:32:15;9.60;;;7.90;;
24206;SDS011;12351;52.284;9.160;2023-04-06T13:35:03;11.35;;;8.08;;
24206;SDS011;12351;52.284;9.160;2023-04-06T13:37:51;10.03;;;7.47;;
24206;SDS011;12351;52.284;9.160;2023-04-06T13:40:39;10.15;;;7.53;;
24206;SDS011;12351;52.284;9.160;2023-04-06T13:43:29;8.90;;;7.10;;
24206;SDS011;12351;52.284;9.160;2023-04-06T13:46:17;9.20;;;7.40;;
24206;SDS011;12351;52.284;9.160;2023-04-06T13:49:05;11.12;;;7.90;;
24206;SDS011;12351;52.284;9.160;2023-04-06T13:51:54;9.68;;;8.00;;
24206;SDS011;12351;52.284;9.160;2023-04-06T13:54:43;11.45;;;9.60;;
24206;SDS011;12351;52.284;9.160;2023-04-06T13:57:34;13.08;;;8.50;;
24206;SDS011;12351;52.284;9.160;2023-04-06T14:00:25;9.75;;;8.10;;
24206;SDS011;12351;52.284;9.160;2023-04-06T14:03:18;8.58;;;7.70;;
24206;SDS011;12351;52.284;9.160;2023-04-06T14:08:56;9.58;;;8.58;;
24206;SDS011;12351;52.284;9.160;2023-04-06T14:11:45;11.30;;;8.50;;
24206;SDS011;12351;52.284;9.160;2023-04-06T14:14:34;11.15;;;8.83;;
24206;SDS011;12351;52.284;9.160;2023-04-06T14:17:22;11.40;;;8.60;;
24206;SDS011;12351;52.284;9.160;2023-04-06T14:20:10;10.40;;;9.20;;
24206;SDS011;12351;52.284;9.160;2023-04-06T14:23:00;15.08;;;9.88;;
24206;SDS011;12351;52.284;9.160;2023-04-06T14:25:47;11.55;;;9.25;;
24206;SDS011;12351;52.284;9.160;2023-04-06T14:28:38;12.30;;;9.30;;
24206;SDS011;12351;52.284;9.160;2023-04-06T14:31:25;12.85;;;9.85;;
24206;SDS011;12351;52.284;9.160;2023-04-06T14:34:14;10.72;;;9.28;;
24206;SDS011;12351;52.284;9.160;2023-04-06T14:37:05;10.93;;;9.63;;
24206;SDS011;12351;52.284;9.160;2023-04-06T14:39:52;11.80;;;10.00;;
24206;SDS011;12351;52.284;9.160;2023-04-06T14:42:42;11.88;;;9.45;;
24206;SDS011;12351;52.284;9.160;2023-04-06T14:45:32;15.88;;;11.28;;
24206;SDS011;12351;52.284;9.160;2023-04-06T14:48:23;14.95;;;11.93;;
24206;SDS011;12351;52.284;9.160;2023-04-06T14:51:10;11.28;;;9.73;;
24206;SDS011;12351;52.284;9.160;2023-04-06T14:53:59;12.33;;;10.15;;
24206;SDS011;12351;52.284;9.160;2023-04-06T14:56:48;11.73;;;10.28;;
24206;SDS011;12351;52.284;9.160;2023-04-06T14:59:35;12.80;;;10.05;;
24206;SDS011;12351;52.284;9.160;2023-04-06T15:02:23;12.75;;;11.30;;
24206;SDS011;12351;52.284;9.160;2023-04-06T15:05:12;12.35;;;11.00;;
24206;SDS011;12351;52.284;9.160;2023-04-06T15:08:00;13.25;;;10.93;;
24206;SDS011;12351;52.284;9.160;2023-04-06T15:10:50;12.88;;;10.53;;
24206;SDS011;12351;52.284;9.160;2023-04-06T15:13:40;15.95;;;10.88;;
24206;SDS011;12351;52.284;9.160;2023-04-06T15:16:28;13.32;;;11.15;;
24206;SDS011;12351;52.284;9.160;2023-04-06T15:19:17;13.38;;;11.43;;
24206;SDS011;12351;52.284;9.160;2023-04-06T15:22:05;13.83;;;11.40;;
24206;SDS011;12351;52.284;9.160;2023-04-06T15:24:55;16.55;;;11.35;;
24206;SDS011;12351;52.284;9.160;2023-04-06T15:27:45;13.60;;;11.55;;
24206;SDS011;12351;52.284;9.160;2023-04-06T15:30:33;15.05;;;10.80;;
24206;SDS011;12351;52.284;9.160;2023-04-06T15:33:25;15.43;;;11.28;;
24206;SDS011;12351;52.284;9.160;2023-04-06T15:36:21;15.37;;;11.07;;
24206;SDS011;12351;52.284;9.160;2023-04-06T15:39:03;14.28;;;10.93;;
24206;SDS011;12351;52.284;9.160;2023-04-06T15:41:53;13.85;;;11.03;;
24206;SDS011;12351;52.284;9.160;2023-04-06T15:44:42;14.87;;;11.17;;
24206;SDS011;12351;52.284;9.160;2023-04-06T15:47:30;15.47;;;10.90;;
24206;SDS011;12351;52.284;9.160;2023-04-06T15:50:18;14.80;;;11.88;;
24206;SDS011;12351;52.284;9.160;2023-04-06T15:53:08;14.98;;;11.10;;
24206;SDS011;12351;52.284;9.160;2023-04-06T15:55:59;15.20;;;10.93;;
24206;SDS011;12351;52.284;9.160;2023-04-06T15:58:48;13.10;;;11.18;;
24206;SDS011;12351;52.284;9.160;2023-04-06T16:01:36;13.00;;;11.05;;
24206;SDS011;12351;52.284;9.160;2023-04-06T16:04:25;15.70;;;11.88;;
24206;SDS011;12351;52.284;9.160;2023-04-06T16:07:15;14.28;;;11.00;;
24206;SDS011;12351;52.284;9.160;2023-04-06T16:10:08;14.65;;;11.57;;
24206;SDS011;12351;52.284;9.160;2023-04-06T16:12:59;14.18;;;11.83;;
24206;SDS011;12351;52.284;9.160;2023-04-06T16:15:48;15.98;;;11.95;;
24206;SDS011;12351;52.284;9.160;2023-04-06T16:18:35;13.98;;;11.12;;
24206;SDS011;12351;52.284;9.160;2023-04-06T16:21:22;12.85;;;11.03;;
24206;SDS011;12351;52.284;9.160;2023-04-06T16:24:12;13.62;;;10.88;;
24206;SDS011;12351;52.284;9.160;2023-04-06T16:27:00;14.63;;;10.95;;
24206;SDS011;12351;52.284;9.160;2023-04-06T16:29:50;14.13;;;11.68;;
24206;SDS011;12351;52.284;9.160;2023-04-06T16:32:39;14.43;;;11.55;;
24206;SDS011;12351;52.284;9.160;2023-04-06T16:35:28;13.43;;;10.95;;
24206;SDS011;12351;52.284;9.160;2023-04-06T16:38:17;13.88;;;11.05;;
24206;SDS011;12351;52.284;9.160;2023-04-06T16:41:06;14.40;;;10.40;;
24206;SDS011;12351;52.284;9.160;2023-04-06T16:43:55;12.82;;;10.45;;
24206;SDS011;12351;52.284;9.160;2023-04-06T16:46:41;13.45;;;10.38;;
24206;SDS011;12351;52.284;9.160;2023-04-06T16:49:30;15.25;;;11.57;;
24206;SDS011;12351;52.284;9.160;2023-04-06T16:52:19;13.03;;;10.53;;
24206;SDS011;12351;52.284;9.160;2023-04-06T16:55:06;17.07;;;11.20;;
24206;SDS011;12351;52.284;9.160;2023-04-06T16:57:58;13.55;;;10.50;;
24206;SDS011;12351;52.284;9.160;2023-04-06T17:00:44;14.20;;;10.63;;
24206;SDS011;12351;52.284;9.160;2023-04-06T17:03:33;16.15;;;11.03;;
24206;SDS011;12351;52.284;9.160;2023-04-06T17:06:20;13.28;;;10.55;;
24206;SDS011;12351;52.284;9.160;2023-04-06T17:09:11;13.55;;;10.70;;
24206;SDS011;12351;52.284;9.160;2023-04-06T17:12:00;15.05;;;10.15;;
24206;SDS011;12351;52.284;9.160;2023-04-06T17:14:47;14.05;;;9.40;;
24206;SDS011;12351;52.284;9.160;2023-04-06T17:17:35;13.45;;;9.83;;
24206;SDS011;12351;52.284;9.160;2023-04-06T17:20:23;14.00;;;9.58;;
24206;SDS011;12351;52.284;9.160;2023-04-06T17:23:11;11.20;;;9.30;;
24206;SDS011;12351;52.284;9.160;2023-04-06T17:28:51;11.55;;;8.80;;
24206;SDS011;12351;52.284;9.160;2023-04-06T17:31:43;12.13;;;8.58;;
24206;SDS011;12351;52.284;9.160;2023-04-06T17:34:30;12.68;;;8.05;;
24206;SDS011;12351;52.284;9.160;2023-04-06T17:37:19;11.57;;;7.72;;
24206;SDS011;12351;52.284;9.160;2023-04-06T17:40:07;12.73;;;7.90;;
24206;SDS011;12351;52.284;9.160;2023-04-06T17:42:56;10.93;;;8.43;;
24206;SDS011;12351;52.284;9.160;2023-04-06T17:45:48;9.85;;;7.10;;
24206;SDS011;12351;52.284;9.160;2023-04-06T17:48:36;8.53;;;7.35;;
24206;SDS011;12351;52.284;9.160;2023-04-06T17:51:26;9.15;;;7.20;;
24206;SDS011;12351;52.284;9.160;2023-04-06T17:54:14;9.23;;;7.45;;
24206;SDS011;12351;52.284;9.160;2023-04-06T17:57:02;10.28;;;6.87;;
24206;SDS011;12351;52.284;9.160;2023-04-06T17:59:52;12.20;;;7.67;;
24206;SDS011;12351;52.284;9.160;2023-04-06T18:02:39;10.85;;;8.08;;
24206;SDS011;12351;52.284;9.160;2023-04-06T18:05:29;9.95;;;7.85;;
24206;SDS011;12351;52.284;9.160;2023-04-06T18:08:16;8.15;;;6.50;;
24206;SDS011;12351;52.284;9.160;2023-04-06T18:11:06;10.75;;;7.50;;
24206;SDS011;12351;52.284;9.160;2023-04-06T18:13:57;8.63;;;7.35;;
24206;SDS011;12351;52.284;9.160;2023-04-06T18:16:47;8.95;;;7.67;;
24206;SDS011;12351;52.284;9.160;2023-04-06T18:19:36;8.55;;;7.10;;
24206;SDS011;12351;52.284;9.160;2023-04-06T18:22:23;12.28;;;7.85;;
24206;SDS011;12351;52.284;9.160;2023-04-06T18:25:13;9.93;;;7.92;;
24206;SDS011;12351;52.284;9.160;2023-04-06T18:28:03;11.73;;;7.65;;
24206;SDS011;12351;52.284;9.160;2023-04-06T18:30:50;10.55;;;7.40;;
24206;SDS011;12351;52.284;9.160;2023-04-06T18:33:39;21.17;;;14.40;;
24206;SDS011;12351;52.284;9.160;2023-04-06T18:36:27;8.10;;;6.97;;
24206;SDS011;12351;52.284;9.160;2023-04-06T18:39:16;8.85;;;6.83;;
24206;SDS011;12351;52.284;9.160;2023-04-06T18:42:05;9.38;;;7.17;;
24206;SDS011;12351;52.284;9.160;2023-04-06T18:44:54;9.30;;;7.30;;
24206;SDS011;12351;52.284;9.160;2023-04-06T18:47:41;12.00;;;7.60;;
24206;SDS011;12351;52.284;9.160;2023-04-06T18:50:29;9.95;;;7.35;;
24206;SDS011;12351;52.284;9.160;2023-04-06T18:53:19;10.40;;;7.55;;
24206;SDS011;12351;52.284;9.160;2023-04-06T18:58:59;11.85;;;7.20;;
24206;SDS011;12351;52.284;9.160;2023-04-06T19:01:50;10.50;;;8.23;;